sensor_id;sensor_type;location;lat;lon;timestamp;P1;durP1;ratioP1;P2;durP2;ratioP2
36257;SDS011;22294;52.044;4.582;2023-02-24T00:02:12;18.75;;;4.88;;
36257;SDS011;22294;52.044;4.582;2023-02-24T00:04:39;19.13;;;6.38;;
36257;SDS011;22294;52.044;4.582;2023-02-24T00:07:05;16.20;;;5.38;;
36257;SDS011;22294;52.044;4.582;2023-02-24T00:09:31;15.68;;;5.45;;
36257;SDS011;22294;52.044;4.582;2023-02-24T00:12:01;17.50;;;5.68;;
36257;SDS011;22294;52.044;4.582;2023-02-24T00:14:31;14.40;;;4.90;;
36257;SDS011;22294;52.044;4.582;2023-02-24T00:16:59;16.15;;;4.07;;
36257;SDS011;22294;52.044;4.582;2023-02-24T00:19:26;14.77;;;4.10;;
36257;SDS011;22294;52.044;4.582;2023-02-24T00:21:53;18.85;;;3.88;;
36257;SDS011;22294;52.044;4.582;2023-02-24T00:24:19;14.05;;;3.22;;
36257;SDS011;22294;52.044;4.582;2023-02-24T00:26:45;19.85;;;3.25;;
36257;SDS011;22294;52.044;4.582;2023-02-24T00:29:18;16.98;;;2.83;;
36257;SDS011;22294;52.044;4.582;2023-02-24T00:31:44;16.70;;;3.45;;
36257;SDS011;22294;52.044;4.582;2023-02-24T00:34:11;13.32;;;2.97;;
36257;SDS011;22294;52.044;4.582;2023-02-24T00:36:37;12.77;;;2.72;;
36257;SDS011;22294;52.044;4.582;2023-02-24T00:39:03;11.85;;;3.03;;
36257;SDS011;22294;52.044;4.582;2023-02-24T00:41:35;9.40;;;3.22;;
36257;SDS011;22294;52.044;4.582;2023-02-24T00:44:04;14.60;;;2.58;;
36257;SDS011;22294;52.044;4.582;2023-02-24T00:46:39;14.70;;;2.90;;
36257;SDS011;22294;52.044;4.582;2023-02-24T00:49:07;20.15;;;4.38;;
36257;SDS011;22294;52.044;4.582;2023-02-24T00:51:37;16.92;;;5.05;;
36257;SDS011;22294;52.044;4.582;2023-02-24T00:54:05;15.40;;;4.45;;
36257;SDS011;22294;52.044;4.582;2023-02-24T00:56:31;13.95;;;4.40;;
36257;SDS011;22294;52.044;4.582;2023-02-24T00:58:57;11.15;;;3.65;;
36257;SDS011;22294;52.044;4.582;2023-02-24T01:01:25;14.35;;;3.50;;
36257;SDS011;22294;52.044;4.582;2023-02-24T01:03:55;19.23;;;3.63;;
36257;SDS011;22294;52.044;4.582;2023-02-24T01:06:22;17.15;;;3.40;;
36257;SDS011;22294;52.044;4.582;2023-02-24T01:08:50;15.40;;;3.58;;
36257;SDS011;22294;52.044;4.582;2023-02-24T01:11:18;8.40;;;2.13;;
36257;SDS011;22294;52.044;4.582;2023-02-24T01:14:07;13.00;;;2.40;;
36257;SDS011;22294;52.044;4.582;2023-02-24T01:16:38;8.02;;;2.30;;
36257;SDS011;22294;52.044;4.582;2023-02-24T01:21:34;9.68;;;2.05;;
36257;SDS011;22294;52.044;4.582;2023-02-24T01:23:59;12.27;;;2.63;;
36257;SDS011;22294;52.044;4.582;2023-02-24T01:26:25;10.77;;;1.73;;
36257;SDS011;22294;52.044;4.582;2023-02-24T01:28:51;11.77;;;2.05;;
36257;SDS011;22294;52.044;4.582;2023-02-24T01:31:18;9.48;;;1.83;;
36257;SDS011;22294;52.044;4.582;2023-02-24T01:33:47;12.07;;;2.28;;
36257;SDS011;22294;52.044;4.582;2023-02-24T01:36:19;11.48;;;2.88;;
36257;SDS011;22294;52.044;4.582;2023-02-24T01:38:47;10.55;;;1.83;;
36257;SDS011;22294;52.044;4.582;2023-02-24T01:41:17;15.20;;;2.20;;
36257;SDS011;22294;52.044;4.582;2023-02-24T01:44:01;9.68;;;2.08;;
36257;SDS011;22294;52.044;4.582;2023-02-24T01:46:33;10.50;;;2.53;;
36257;SDS011;22294;52.044;4.582;2023-02-24T01:49:08;11.27;;;1.92;;
36257;SDS011;22294;52.044;4.582;2023-02-24T01:51:39;11.95;;;2.10;;
36257;SDS011;22294;52.044;4.582;2023-02-24T01:54:09;12.70;;;1.98;;
36257;SDS011;22294;52.044;4.582;2023-02-24T01:56:36;13.95;;;2.13;;
36257;SDS011;22294;52.044;4.582;2023-02-24T01:59:05;13.00;;;1.75;;
36257;SDS011;22294;52.044;4.582;2023-02-24T02:01:32;7.05;;;1.95;;
36257;SDS011;22294;52.044;4.582;2023-02-24T02:04:04;10.50;;;1.80;;
36257;SDS011;22294;52.044;4.582;2023-02-24T02:06:46;15.05;;;2.00;;
36257;SDS011;22294;52.044;4.582;2023-02-24T02:09:12;7.60;;;1.70;;
36257;SDS011;22294;52.044;4.582;2023-02-24T02:11:42;15.07;;;2.17;;
36257;SDS011;22294;52.044;4.582;2023-02-24T02:14:13;9.32;;;1.77;;
36257;SDS011;22294;52.044;4.582;2023-02-24T02:35:44;9.98;;;1.67;;
36257;SDS011;22294;52.044;4.582;2023-02-24T02:41:36;10.15;;;1.70;;
36257;SDS011;22294;52.044;4.582;2023-02-24T02:44:21;10.43;;;2.72;;
36257;SDS011;22294;52.044;4.582;2023-02-24T02:49:48;13.32;;;1.90;;
36257;SDS011;22294;52.044;4.582;2023-02-24T02:52:25;9.60;;;1.60;;
36257;SDS011;22294;52.044;4.582;2023-02-24T02:54:58;14.55;;;1.80;;
36257;SDS011;22294;52.044;4.582;2023-02-24T02:57:48;7.28;;;1.55;;
36257;SDS011;22294;52.044;4.582;2023-02-24T03:00:17;7.40;;;1.55;;
36257;SDS011;22294;52.044;4.582;2023-02-24T03:02:51;13.85;;;1.80;;
36257;SDS011;22294;52.044;4.582;2023-02-24T03:05:21;10.00;;;1.55;;
36257;SDS011;22294;52.044;4.582;2023-02-24T03:07:53;12.98;;;2.05;;
36257;SDS011;22294;52.044;4.582;2023-02-24T03:10:24;9.05;;;1.85;;
36257;SDS011;22294;52.044;4.582;2023-02-24T03:12:52;12.73;;;1.40;;
36257;SDS011;22294;52.044;4.582;2023-02-24T03:15:20;8.82;;;2.30;;
36257;SDS011;22294;52.044;4.582;2023-02-24T03:17:49;7.88;;;1.85;;
36257;SDS011;22294;52.044;4.582;2023-02-24T03:20:25;11.40;;;2.38;;
36257;SDS011;22294;52.044;4.582;2023-02-24T03:23:12;6.97;;;1.40;;
36257;SDS011;22294;52.044;4.582;2023-02-24T03:25:43;9.52;;;2.00;;
36257;SDS011;22294;52.044;4.582;2023-02-24T03:28:22;11.20;;;1.58;;
36257;SDS011;22294;52.044;4.582;2023-02-24T03:30:59;8.38;;;1.25;;
36257;SDS011;22294;52.044;4.582;2023-02-24T03:33:38;6.88;;;1.08;;
36257;SDS011;22294;52.044;4.582;2023-02-24T03:36:05;7.60;;;1.48;;
36257;SDS011;22294;52.044;4.582;2023-02-24T03:38:31;11.73;;;1.40;;
36257;SDS011;22294;52.044;4.582;2023-02-24T03:43:30;10.98;;;2.25;;
36257;SDS011;22294;52.044;4.582;2023-02-24T03:45:59;8.27;;;1.42;;
36257;SDS011;22294;52.044;4.582;2023-02-24T03:48:27;10.82;;;2.17;;
36257;SDS011;22294;52.044;4.582;2023-02-24T03:50:53;7.35;;;1.90;;
36257;SDS011;22294;52.044;4.582;2023-02-24T03:58:30;12.80;;;1.48;;
36257;SDS011;22294;52.044;4.582;2023-02-24T04:01:12;8.02;;;1.58;;
36257;SDS011;22294;52.044;4.582;2023-02-24T04:03:48;6.20;;;1.10;;
36257;SDS011;22294;52.044;4.582;2023-02-24T04:06:40;7.40;;;1.25;;
36257;SDS011;22294;52.044;4.582;2023-02-24T04:09:16;10.38;;;1.50;;
36257;SDS011;22294;52.044;4.582;2023-02-24T04:11:59;9.85;;;1.67;;
36257;SDS011;22294;52.044;4.582;2023-02-24T04:14:28;10.23;;;1.08;;
36257;SDS011;22294;52.044;4.582;2023-02-24T04:17:02;12.52;;;1.67;;
36257;SDS011;22294;52.044;4.582;2023-02-24T04:19:39;12.55;;;1.38;;
36257;SDS011;22294;52.044;4.582;2023-02-24T04:22:07;5.22;;;0.90;;
36257;SDS011;22294;52.044;4.582;2023-02-24T04:24:36;5.97;;;1.02;;
36257;SDS011;22294;52.044;4.582;2023-02-24T04:27:04;6.88;;;1.10;;
36257;SDS011;22294;52.044;4.582;2023-02-24T04:29:32;12.93;;;1.50;;
36257;SDS011;22294;52.044;4.582;2023-02-24T04:32:05;4.88;;;1.05;;
36257;SDS011;22294;52.044;4.582;2023-02-24T04:34:32;10.55;;;1.80;;
36257;SDS011;22294;52.044;4.582;2023-02-24T04:36:58;13.30;;;1.20;;
36257;SDS011;22294;52.044;4.582;2023-02-24T04:39:26;10.13;;;1.35;;
36257;SDS011;22294;52.044;4.582;2023-02-24T04:41:52;9.57;;;1.15;;
36257;SDS011;22294;52.044;4.582;2023-02-24T04:44:19;3.53;;;0.88;;
36257;SDS011;22294;52.044;4.582;2023-02-24T04:46:45;10.05;;;2.00;;
36257;SDS011;22294;52.044;4.582;2023-02-24T04:49:13;9.90;;;1.98;;
36257;SDS011;22294;52.044;4.582;2023-02-24T04:51:38;8.15;;;1.17;;
36257;SDS011;22294;52.044;4.582;2023-02-24T04:54:08;6.40;;;0.90;;
36257;SDS011;22294;52.044;4.582;2023-02-24T04:56:37;7.00;;;1.20;;
36257;SDS011;22294;52.044;4.582;2023-02-24T04:59:04;9.13;;;1.20;;
36257;SDS011;22294;52.044;4.582;2023-02-24T05:01:30;10.40;;;1.10;;
36257;SDS011;22294;52.044;4.582;2023-02-24T05:03:55;9.70;;;1.30;;
36257;SDS011;22294;52.044;4.582;2023-02-24T05:06:21;9.43;;;1.20;;
36257;SDS011;22294;52.044;4.582;2023-02-24T05:08:46;11.23;;;1.40;;
36257;SDS011;22294;52.044;4.582;2023-02-24T05:11:15;9.55;;;1.40;;
36257;SDS011;22294;52.044;4.582;2023-02-24T05:16:11;8.05;;;1.42;;
36257;SDS011;22294;52.044;4.582;2023-02-24T05:18:38;4.40;;;0.95;;
36257;SDS011;22294;52.044;4.582;2023-02-24T05:21:05;9.25;;;1.33;;
36257;SDS011;22294;52.044;4.582;2023-02-24T05:23:51;5.28;;;1.15;;
36257;SDS011;22294;52.044;4.582;2023-02-24T05:26:19;12.90;;;2.00;;
36257;SDS011;22294;52.044;4.582;2023-02-24T05:28:46;6.20;;;1.13;;
36257;SDS011;22294;52.044;4.582;2023-02-24T05:31:14;9.25;;;1.38;;
36257;SDS011;22294;52.044;4.582;2023-02-24T05:33:42;8.30;;;1.45;;
36257;SDS011;22294;52.044;4.582;2023-02-24T05:36:10;8.25;;;1.10;;
36257;SDS011;22294;52.044;4.582;2023-02-24T05:38:39;10.90;;;1.65;;
36257;SDS011;22294;52.044;4.582;2023-02-24T05:41:08;9.80;;;1.65;;
36257;SDS011;22294;52.044;4.582;2023-02-24T05:43:48;5.03;;;1.20;;
36257;SDS011;22294;52.044;4.582;2023-02-24T05:46:22;10.80;;;1.80;;
36257;SDS011;22294;52.044;4.582;2023-02-24T05:48:52;7.28;;;1.70;;
36257;SDS011;22294;52.044;4.582;2023-02-24T05:51:23;9.45;;;1.58;;
36257;SDS011;22294;52.044;4.582;2023-02-24T05:53:50;9.95;;;1.90;;
36257;SDS011;22294;52.044;4.582;2023-02-24T05:56:19;12.02;;;2.13;;
36257;SDS011;22294;52.044;4.582;2023-02-24T05:58:46;8.40;;;2.15;;
36257;SDS011;22294;52.044;4.582;2023-02-24T06:01:11;9.02;;;2.10;;
36257;SDS011;22294;52.044;4.582;2023-02-24T06:03:43;10.07;;;2.13;;
36257;SDS011;22294;52.044;4.582;2023-02-24T06:06:12;12.73;;;2.25;;
36257;SDS011;22294;52.044;4.582;2023-02-24T06:08:39;8.00;;;2.28;;
36257;SDS011;22294;52.044;4.582;2023-02-24T06:11:13;11.90;;;2.10;;
36257;SDS011;22294;52.044;4.582;2023-02-24T06:13:41;10.15;;;2.72;;
36257;SDS011;22294;52.044;4.582;2023-02-24T06:16:13;11.10;;;2.80;;
36257;SDS011;22294;52.044;4.582;2023-02-24T06:18:43;9.43;;;2.38;;
36257;SDS011;22294;52.044;4.582;2023-02-24T06:21:12;11.00;;;1.88;;
36257;SDS011;22294;52.044;4.582;2023-02-24T06:23:38;8.63;;;2.75;;
36257;SDS011;22294;52.044;4.582;2023-02-24T06:26:04;10.57;;;2.25;;
36257;SDS011;22294;52.044;4.582;2023-02-24T06:28:30;12.50;;;2.30;;
36257;SDS011;22294;52.044;4.582;2023-02-24T06:30:55;7.20;;;1.65;;
36257;SDS011;22294;52.044;4.582;2023-02-24T06:33:21;9.82;;;2.28;;
36257;SDS011;22294;52.044;4.582;2023-02-24T06:35:47;14.80;;;2.28;;
36257;SDS011;22294;52.044;4.582;2023-02-24T06:38:12;9.90;;;1.92;;
36257;SDS011;22294;52.044;4.582;2023-02-24T06:40:39;17.20;;;2.92;;
36257;SDS011;22294;52.044;4.582;2023-02-24T06:43:07;9.40;;;1.90;;
36257;SDS011;22294;52.044;4.582;2023-02-24T06:45:33;10.48;;;2.10;;
36257;SDS011;22294;52.044;4.582;2023-02-24T06:47:59;6.70;;;1.80;;
36257;SDS011;22294;52.044;4.582;2023-02-24T06:50:24;12.30;;;1.90;;
36257;SDS011;22294;52.044;4.582;2023-02-24T06:52:53;8.88;;;1.80;;
36257;SDS011;22294;52.044;4.582;2023-02-24T06:55:22;15.88;;;2.60;;
36257;SDS011;22294;52.044;4.582;2023-02-24T06:57:54;11.32;;;2.30;;
36257;SDS011;22294;52.044;4.582;2023-02-24T07:00:28;10.57;;;2.20;;
36257;SDS011;22294;52.044;4.582;2023-02-24T07:03:06;11.85;;;1.90;;
36257;SDS011;22294;52.044;4.582;2023-02-24T07:05:43;14.88;;;2.58;;
36257;SDS011;22294;52.044;4.582;2023-02-24T07:08:30;13.48;;;2.05;;
36257;SDS011;22294;52.044;4.582;2023-02-24T07:10:56;4.70;;;2.17;;
36257;SDS011;22294;52.044;4.582;2023-02-24T07:13:24;10.93;;;2.42;;
36257;SDS011;22294;52.044;4.582;2023-02-24T07:15:52;9.50;;;2.22;;
36257;SDS011;22294;52.044;4.582;2023-02-24T07:18:18;10.50;;;2.20;;
36257;SDS011;22294;52.044;4.582;2023-02-24T07:20:44;10.32;;;1.95;;
36257;SDS011;22294;52.044;4.582;2023-02-24T07:23:11;9.25;;;1.98;;
36257;SDS011;22294;52.044;4.582;2023-02-24T07:25:38;10.57;;;2.33;;
36257;SDS011;22294;52.044;4.582;2023-02-24T07:28:05;10.35;;;1.83;;
36257;SDS011;22294;52.044;4.582;2023-02-24T07:30:31;17.48;;;2.88;;
36257;SDS011;22294;52.044;4.582;2023-02-24T07:32:57;19.20;;;3.20;;
36257;SDS011;22294;52.044;4.582;2023-02-24T07:35:23;10.70;;;2.50;;
36257;SDS011;22294;52.044;4.582;2023-02-24T07:37:49;17.08;;;2.45;;
36257;SDS011;22294;52.044;4.582;2023-02-24T07:40:15;10.82;;;2.40;;
36257;SDS011;22294;52.044;4.582;2023-02-24T07:42:42;16.30;;;3.03;;
36257;SDS011;22294;52.044;4.582;2023-02-24T07:45:08;13.85;;;2.67;;
36257;SDS011;22294;52.044;4.582;2023-02-24T07:47:34;11.48;;;2.60;;
36257;SDS011;22294;52.044;4.582;2023-02-24T07:50:00;13.80;;;3.20;;
36257;SDS011;22294;52.044;4.582;2023-02-24T07:52:27;15.15;;;3.42;;
36257;SDS011;22294;52.044;4.582;2023-02-24T07:54:56;17.23;;;3.37;;
36257;SDS011;22294;52.044;4.582;2023-02-24T07:57:22;12.05;;;2.75;;
36257;SDS011;22294;52.044;4.582;2023-02-24T07:59:49;15.90;;;2.60;;
36257;SDS011;22294;52.044;4.582;2023-02-24T08:02:15;16.83;;;3.55;;
36257;SDS011;22294;52.044;4.582;2023-02-24T08:04:40;9.65;;;2.92;;
36257;SDS011;22294;52.044;4.582;2023-02-24T08:07:12;14.52;;;3.13;;
36257;SDS011;22294;52.044;4.582;2023-02-24T08:09:38;14.32;;;3.10;;
36257;SDS011;22294;52.044;4.582;2023-02-24T08:12:10;16.25;;;3.85;;
36257;SDS011;22294;52.044;4.582;2023-02-24T08:14:41;13.02;;;2.35;;
36257;SDS011;22294;52.044;4.582;2023-02-24T08:17:09;17.83;;;2.95;;
36257;SDS011;22294;52.044;4.582;2023-02-24T08:19:36;12.40;;;2.22;;
36257;SDS011;22294;52.044;4.582;2023-02-24T08:22:08;13.77;;;3.55;;
36257;SDS011;22294;52.044;4.582;2023-02-24T08:24:50;11.10;;;2.63;;
36257;SDS011;22294;52.044;4.582;2023-02-24T08:27:20;19.10;;;3.05;;
36257;SDS011;22294;52.044;4.582;2023-02-24T08:29:49;11.82;;;3.15;;
36257;SDS011;22294;52.044;4.582;2023-02-24T08:35:01;11.52;;;3.10;;
36257;SDS011;22294;52.044;4.582;2023-02-24T08:37:32;12.65;;;2.97;;
36257;SDS011;22294;52.044;4.582;2023-02-24T08:40:04;13.00;;;2.80;;
36257;SDS011;22294;52.044;4.582;2023-02-24T08:42:32;12.70;;;2.37;;
36257;SDS011;22294;52.044;4.582;2023-02-24T08:45:01;14.20;;;2.60;;
36257;SDS011;22294;52.044;4.582;2023-02-24T08:47:28;14.70;;;2.60;;
36257;SDS011;22294;52.044;4.582;2023-02-24T08:49:58;17.25;;;3.08;;
36257;SDS011;22294;52.044;4.582;2023-02-24T08:52:24;12.65;;;2.38;;
36257;SDS011;22294;52.044;4.582;2023-02-24T08:54:53;14.57;;;2.88;;
36257;SDS011;22294;52.044;4.582;2023-02-24T08:57:24;8.95;;;2.55;;
36257;SDS011;22294;52.044;4.582;2023-02-24T08:59:50;14.25;;;2.80;;
36257;SDS011;22294;52.044;4.582;2023-02-24T09:02:21;12.77;;;2.70;;
36257;SDS011;22294;52.044;4.582;2023-02-24T09:04:52;12.55;;;2.67;;
36257;SDS011;22294;52.044;4.582;2023-02-24T09:07:24;20.30;;;2.90;;
36257;SDS011;22294;52.044;4.582;2023-02-24T09:09:51;21.75;;;2.60;;
36257;SDS011;22294;52.044;4.582;2023-02-24T09:12:20;12.57;;;2.03;;
36257;SDS011;22294;52.044;4.582;2023-02-24T09:14:54;18.58;;;2.42;;
36257;SDS011;22294;52.044;4.582;2023-02-24T09:17:23;16.88;;;3.00;;
36257;SDS011;22294;52.044;4.582;2023-02-24T09:20:04;16.48;;;2.55;;
36257;SDS011;22294;52.044;4.582;2023-02-24T09:22:48;13.70;;;2.63;;
36257;SDS011;22294;52.044;4.582;2023-02-24T09:25:40;18.00;;;3.83;;
36257;SDS011;22294;52.044;4.582;2023-02-24T09:28:06;15.20;;;3.38;;
36257;SDS011;22294;52.044;4.582;2023-02-24T09:30:39;17.77;;;4.18;;
36257;SDS011;22294;52.044;4.582;2023-02-24T09:35:48;17.90;;;3.70;;
36257;SDS011;22294;52.044;4.582;2023-02-24T09:38:14;17.50;;;4.18;;
36257;SDS011;22294;52.044;4.582;2023-02-24T09:40:42;17.52;;;3.42;;
36257;SDS011;22294;52.044;4.582;2023-02-24T09:43:21;14.55;;;3.00;;
36257;SDS011;22294;52.044;4.582;2023-02-24T09:48:41;16.60;;;3.30;;
36257;SDS011;22294;52.044;4.582;2023-02-24T09:51:15;15.63;;;3.53;;
36257;SDS011;22294;52.044;4.582;2023-02-24T09:53:53;19.23;;;3.20;;
36257;SDS011;22294;52.044;4.582;2023-02-24T09:56:37;20.65;;;3.85;;
36257;SDS011;22294;52.044;4.582;2023-02-24T09:59:11;17.67;;;3.65;;
36257;SDS011;22294;52.044;4.582;2023-02-24T10:07:32;11.23;;;3.70;;
36257;SDS011;22294;52.044;4.582;2023-02-24T10:10:07;18.27;;;5.10;;
36257;SDS011;22294;52.044;4.582;2023-02-24T10:12:50;15.48;;;5.20;;
36257;SDS011;22294;52.044;4.582;2023-02-24T10:15:18;15.50;;;5.35;;
36257;SDS011;22294;52.044;4.582;2023-02-24T10:21:41;12.70;;;5.65;;
36257;SDS011;22294;52.044;4.582;2023-02-24T10:24:31;11.57;;;6.18;;
36257;SDS011;22294;52.044;4.582;2023-02-24T10:27:05;12.68;;;6.25;;
36257;SDS011;22294;52.044;4.582;2023-02-24T10:35:17;16.60;;;7.60;;
36257;SDS011;22294;52.044;4.582;2023-02-24T10:37:44;14.85;;;8.40;;
36257;SDS011;22294;52.044;4.582;2023-02-24T10:40:11;14.18;;;8.23;;
36257;SDS011;22294;52.044;4.582;2023-02-24T10:42:50;14.80;;;7.95;;
36257;SDS011;22294;52.044;4.582;2023-02-24T10:45:28;15.18;;;8.43;;
36257;SDS011;22294;52.044;4.582;2023-02-24T10:47:56;14.30;;;7.95;;
36257;SDS011;22294;52.044;4.582;2023-02-24T10:50:27;14.63;;;7.68;;
36257;SDS011;22294;52.044;4.582;2023-02-24T10:52:53;11.90;;;7.63;;
36257;SDS011;22294;52.044;4.582;2023-02-24T10:58:19;12.10;;;7.93;;
36257;SDS011;22294;52.044;4.582;2023-02-24T11:01:17;16.48;;;7.93;;
36257;SDS011;22294;52.044;4.582;2023-02-24T11:04:18;10.43;;;7.50;;
36257;SDS011;22294;52.044;4.582;2023-02-24T11:07:10;13.25;;;7.75;;
36257;SDS011;22294;52.044;4.582;2023-02-24T11:09:49;12.70;;;8.00;;
36257;SDS011;22294;52.044;4.582;2023-02-24T11:12:43;12.43;;;7.95;;
36257;SDS011;22294;52.044;4.582;2023-02-24T11:15:30;12.65;;;8.60;;
36257;SDS011;22294;52.044;4.582;2023-02-24T11:18:24;13.73;;;8.45;;
36257;SDS011;22294;52.044;4.582;2023-02-24T11:20:56;16.02;;;8.18;;
36257;SDS011;22294;52.044;4.582;2023-02-24T11:23:25;14.27;;;8.20;;
36257;SDS011;22294;52.044;4.582;2023-02-24T11:25:56;16.92;;;8.95;;
36257;SDS011;22294;52.044;4.582;2023-02-24T11:42:33;17.02;;;7.38;;
36257;SDS011;22294;52.044;4.582;2023-02-24T11:45:06;20.67;;;6.43;;
36257;SDS011;22294;52.044;4.582;2023-02-24T11:47:42;15.10;;;4.68;;
36257;SDS011;22294;52.044;4.582;2023-02-24T11:50:22;16.15;;;4.93;;
36257;SDS011;22294;52.044;4.582;2023-02-24T11:52:50;12.02;;;5.38;;
36257;SDS011;22294;52.044;4.582;2023-02-24T11:55:27;15.40;;;5.65;;
36257;SDS011;22294;52.044;4.582;2023-02-24T11:58:00;14.50;;;5.38;;
36257;SDS011;22294;52.044;4.582;2023-02-24T12:00:34;16.38;;;5.88;;
36257;SDS011;22294;52.044;4.582;2023-02-24T12:03:10;14.68;;;6.45;;
36257;SDS011;22294;52.044;4.582;2023-02-24T12:05:49;18.38;;;7.72;;
36257;SDS011;22294;52.044;4.582;2023-02-24T12:08:23;26.77;;;8.15;;
36257;SDS011;22294;52.044;4.582;2023-02-24T12:10:55;23.58;;;6.55;;
36257;SDS011;22294;52.044;4.582;2023-02-24T12:16:28;26.75;;;6.82;;
36257;SDS011;22294;52.044;4.582;2023-02-24T12:22:15;22.63;;;4.80;;
36257;SDS011;22294;52.044;4.582;2023-02-24T12:24:44;26.33;;;4.50;;
36257;SDS011;22294;52.044;4.582;2023-02-24T12:46:33;21.60;;;3.65;;
36257;SDS011;22294;52.044;4.582;2023-02-24T12:49:06;28.30;;;3.88;;
36257;SDS011;22294;52.044;4.582;2023-02-24T12:57:30;33.63;;;3.92;;
36257;SDS011;22294;52.044;4.582;2023-02-24T13:00:10;29.88;;;4.88;;
36257;SDS011;22294;52.044;4.582;2023-02-24T13:02:51;27.15;;;3.28;;
36257;SDS011;22294;52.044;4.582;2023-02-24T13:08:07;25.98;;;3.92;;
36257;SDS011;22294;52.044;4.582;2023-02-24T13:16:05;25.75;;;4.78;;
36257;SDS011;22294;52.044;4.582;2023-02-24T13:18:35;29.00;;;4.18;;
36257;SDS011;22294;52.044;4.582;2023-02-24T13:21:07;28.00;;;4.45;;
36257;SDS011;22294;52.044;4.582;2023-02-24T13:23:57;26.30;;;4.45;;
36257;SDS011;22294;52.044;4.582;2023-02-24T13:26:25;30.83;;;4.10;;
36257;SDS011;22294;52.044;4.582;2023-02-24T13:29:10;22.52;;;4.07;;
36257;SDS011;22294;52.044;4.582;2023-02-24T13:31:44;35.10;;;4.00;;
36257;SDS011;22294;52.044;4.582;2023-02-24T13:34:31;27.13;;;4.55;;
36257;SDS011;22294;52.044;4.582;2023-02-24T13:37:07;34.72;;;4.38;;
36257;SDS011;22294;52.044;4.582;2023-02-24T13:39:37;26.33;;;3.90;;
36257;SDS011;22294;52.044;4.582;2023-02-24T13:42:28;24.63;;;3.72;;
36257;SDS011;22294;52.044;4.582;2023-02-24T13:45:05;27.63;;;4.47;;
36257;SDS011;22294;52.044;4.582;2023-02-24T13:55:48;20.67;;;3.63;;
36257;SDS011;22294;52.044;4.582;2023-02-24T14:01:17;23.05;;;3.47;;
36257;SDS011;22294;52.044;4.582;2023-02-24T14:03:45;19.48;;;3.25;;
36257;SDS011;22294;52.044;4.582;2023-02-24T14:06:31;18.27;;;3.47;;
36257;SDS011;22294;52.044;4.582;2023-02-24T14:08:58;21.90;;;3.65;;
36257;SDS011;22294;52.044;4.582;2023-02-24T14:11:27;28.20;;;3.63;;
36257;SDS011;22294;52.044;4.582;2023-02-24T14:13:56;20.73;;;3.33;;
36257;SDS011;22294;52.044;4.582;2023-02-24T14:16:22;21.60;;;3.22;;
36257;SDS011;22294;52.044;4.582;2023-02-24T14:18:55;27.50;;;3.58;;
36257;SDS011;22294;52.044;4.582;2023-02-24T14:21:24;19.55;;;3.05;;
36257;SDS011;22294;52.044;4.582;2023-02-24T14:23:55;22.77;;;4.47;;
36257;SDS011;22294;52.044;4.582;2023-02-24T14:26:26;25.35;;;5.05;;
36257;SDS011;22294;52.044;4.582;2023-02-24T14:28:55;25.35;;;3.45;;
36257;SDS011;22294;52.044;4.582;2023-02-24T14:31:24;26.73;;;3.40;;
36257;SDS011;22294;52.044;4.582;2023-02-24T14:33:58;20.25;;;3.15;;
36257;SDS011;22294;52.044;4.582;2023-02-24T14:36:26;26.25;;;3.50;;
36257;SDS011;22294;52.044;4.582;2023-02-24T14:39:02;19.80;;;2.72;;
36257;SDS011;22294;52.044;4.582;2023-02-24T14:41:33;11.57;;;2.17;;
36257;SDS011;22294;52.044;4.582;2023-02-24T14:44:20;12.43;;;1.77;;
36257;SDS011;22294;52.044;4.582;2023-02-24T14:46:53;13.38;;;1.80;;
36257;SDS011;22294;52.044;4.582;2023-02-24T14:49:30;9.63;;;2.08;;
36257;SDS011;22294;52.044;4.582;2023-02-24T14:57:19;10.77;;;1.77;;
36257;SDS011;22294;52.044;4.582;2023-02-24T14:59:53;12.52;;;1.92;;
36257;SDS011;22294;52.044;4.582;2023-02-24T15:02:23;11.15;;;1.88;;
36257;SDS011;22294;52.044;4.582;2023-02-24T15:04:55;13.25;;;1.58;;
36257;SDS011;22294;52.044;4.582;2023-02-24T15:07:22;8.52;;;1.40;;
36257;SDS011;22294;52.044;4.582;2023-02-24T15:12:28;6.25;;;1.35;;
36257;SDS011;22294;52.044;4.582;2023-02-24T15:14:57;8.38;;;1.20;;
36257;SDS011;22294;52.044;4.582;2023-02-24T15:17:26;11.55;;;1.30;;
36257;SDS011;22294;52.044;4.582;2023-02-24T15:19:52;5.35;;;1.02;;
36257;SDS011;22294;52.044;4.582;2023-02-24T15:24:53;12.23;;;1.57;;
36257;SDS011;22294;52.044;4.582;2023-02-24T15:27:31;5.82;;;1.58;;
36257;SDS011;22294;52.044;4.582;2023-02-24T15:30:01;9.18;;;1.30;;
36257;SDS011;22294;52.044;4.582;2023-02-24T15:32:32;11.60;;;1.20;;
36257;SDS011;22294;52.044;4.582;2023-02-24T15:34:59;7.78;;;1.45;;
36257;SDS011;22294;52.044;4.582;2023-02-24T15:37:38;6.80;;;1.10;;
36257;SDS011;22294;52.044;4.582;2023-02-24T15:40:16;9.50;;;1.20;;
36257;SDS011;22294;52.044;4.582;2023-02-24T15:42:54;6.00;;;1.65;;
36257;SDS011;22294;52.044;4.582;2023-02-24T15:45:32;9.20;;;1.05;;
36257;SDS011;22294;52.044;4.582;2023-02-24T15:48:00;6.32;;;1.20;;
36257;SDS011;22294;52.044;4.582;2023-02-24T15:50:27;10.85;;;1.52;;
36257;SDS011;22294;52.044;4.582;2023-02-24T15:52:58;7.65;;;1.70;;
36257;SDS011;22294;52.044;4.582;2023-02-24T15:55:27;8.68;;;1.60;;
36257;SDS011;22294;52.044;4.582;2023-02-24T15:57:58;11.05;;;2.25;;
36257;SDS011;22294;52.044;4.582;2023-02-24T16:00:25;9.23;;;1.70;;
36257;SDS011;22294;52.044;4.582;2023-02-24T16:02:51;8.80;;;1.70;;
36257;SDS011;22294;52.044;4.582;2023-02-24T16:05:16;7.85;;;2.03;;
36257;SDS011;22294;52.044;4.582;2023-02-24T16:07:42;11.13;;;2.15;;
36257;SDS011;22294;52.044;4.582;2023-02-24T16:10:13;10.60;;;1.50;;
36257;SDS011;22294;52.044;4.582;2023-02-24T16:12:45;11.90;;;1.77;;
36257;SDS011;22294;52.044;4.582;2023-02-24T16:15:16;8.27;;;2.10;;
36257;SDS011;22294;52.044;4.582;2023-02-24T16:17:46;19.00;;;2.28;;
36257;SDS011;22294;52.044;4.582;2023-02-24T16:20:21;12.40;;;2.90;;
36257;SDS011;22294;52.044;4.582;2023-02-24T16:22:53;16.75;;;2.55;;
36257;SDS011;22294;52.044;4.582;2023-02-24T16:25:19;11.75;;;2.17;;
36257;SDS011;22294;52.044;4.582;2023-02-24T16:27:45;8.77;;;1.35;;
36257;SDS011;22294;52.044;4.582;2023-02-24T16:30:15;17.63;;;2.05;;
36257;SDS011;22294;52.044;4.582;2023-02-24T16:32:42;12.70;;;2.72;;
36257;SDS011;22294;52.044;4.582;2023-02-24T16:35:08;12.88;;;2.85;;
36257;SDS011;22294;52.044;4.582;2023-02-24T16:37:35;11.95;;;2.13;;
36257;SDS011;22294;52.044;4.582;2023-02-24T16:40:01;10.35;;;2.03;;
36257;SDS011;22294;52.044;4.582;2023-02-24T16:42:29;15.68;;;1.83;;
36257;SDS011;22294;52.044;4.582;2023-02-24T16:44:55;10.13;;;1.73;;
36257;SDS011;22294;52.044;4.582;2023-02-24T16:47:21;9.35;;;1.42;;
36257;SDS011;22294;52.044;4.582;2023-02-24T16:49:48;13.55;;;1.77;;
36257;SDS011;22294;52.044;4.582;2023-02-24T16:52:15;13.57;;;2.05;;
36257;SDS011;22294;52.044;4.582;2023-02-24T16:54:44;14.47;;;1.87;;
36257;SDS011;22294;52.044;4.582;2023-02-24T16:57:11;12.85;;;2.00;;
36257;SDS011;22294;52.044;4.582;2023-02-24T16:59:36;11.80;;;1.75;;
36257;SDS011;22294;52.044;4.582;2023-02-24T17:02:02;14.63;;;1.75;;
36257;SDS011;22294;52.044;4.582;2023-02-24T17:04:27;13.73;;;1.85;;
36257;SDS011;22294;52.044;4.582;2023-02-24T17:06:53;14.30;;;2.30;;
36257;SDS011;22294;52.044;4.582;2023-02-24T17:09:18;14.30;;;2.35;;
36257;SDS011;22294;52.044;4.582;2023-02-24T17:11:44;21.10;;;3.45;;
36257;SDS011;22294;52.044;4.582;2023-02-24T17:14:16;14.48;;;2.42;;
36257;SDS011;22294;52.044;4.582;2023-02-24T17:16:42;18.08;;;2.00;;
36257;SDS011;22294;52.044;4.582;2023-02-24T17:19:08;14.80;;;3.00;;
36257;SDS011;22294;52.044;4.582;2023-02-24T17:21:33;18.80;;;2.90;;